This is the latest recevied weather packets stored in our database for station/object SA4AGM-10. If no packets are shown the sender has not sent any weather packets the latest 10 day(s).
| Time | Temp. | Humidity | Pressure | Rain* | Wind** | Luminosity | Snow |
|---|---|---|---|---|---|---|---|
| 1777631020 | 29.44° C | 21% | 1019 hPa | - | - | - | - |
| 1777630120 | 28.89° C | 20% | 1019.2 hPa | - | - | - | - |
| 1777629219 | 27.78° C | 24% | 1019.5 hPa | - | - | - | - |
| 1777628319 | 27.22° C | 25% | 1019.7 hPa | - | - | - | - |
| 1777627419 | 26.67° C | 25% | 1019.8 hPa | - | - | - | - |
| 1777626519 | 27.78° C | 24% | 1020 hPa | - | - | - | - |
| 1777625619 | 26.67° C | 27% | 1020.2 hPa | - | - | - | - |
| 1777624719 | 28.89° C | 24% | 1020.2 hPa | - | - | - | - |
| 1777623819 | 28.89° C | 24% | 1020.4 hPa | - | - | - | - |
| 1777622919 | 30.56° C | 22% | 1020.4 hPa | - | - | - | - |
| 1777622019 | 30° C | 25% | 1020.5 hPa | - | - | - | - |
| 1777621119 | 28.89° C | 27% | 1020.7 hPa | - | - | - | - |
| 1777620218 | 29.44° C | 25% | 1020.9 hPa | - | - | - | - |
| 1777619317 | 27.22° C | 29% | 1020.5 hPa | - | - | - | - |
| 1777618417 | 21.11° C | 36% | 1021.3 hPa | - | - | - | - |
| 1777617517 | 18.89° C | 41% | 1021.4 hPa | - | - | - | - |
| 1777616617 | 22.78° C | 35% | 1021.4 hPa | - | - | - | - |
| 1777615717 | 22.22° C | 36% | 1021.5 hPa | - | - | - | - |
| 1777614817 | 21.11° C | 39% | 1021.6 hPa | - | - | - | - |
| 1777613917 | 18.33° C | 47% | 1021.6 hPa | - | - | - | - |
| 1777613016 | 8.89° C | 91% | 1022.2 hPa | - | - | - | - |
| 1777612116 | 6.11° C | 100% | 1022.6 hPa | - | - | - | - |
| 1777611216 | 5.56° C | 100% | 1022.6 hPa | - | - | - | - |
| 1777610316 | 5° C | 100% | 1022.9 hPa | - | - | - | - |
| 1777609416 | 4.44° C | 100% | 1023 hPa | - | - | - | - |
* Rain since midnight (hover to see other rain measurements)
** Current wind speed in m/s (hover to see current wind gust speed)